sensor_id;sensor_type;location;lat;lon;timestamp;pressure;altitude;pressure_sealevel;temperature;humidity
63970;BME280;50156;37.772;-122.432;2022-10-16T00:01:22;100784.17;;;16.55;100.00
63970;BME280;50156;37.772;-122.432;2022-10-16T00:03:51;100781.57;;;16.64;100.00
63970;BME280;50156;37.772;-122.432;2022-10-16T00:06:21;100784.11;;;16.56;100.00
63970;BME280;50156;37.772;-122.432;2022-10-16T00:08:50;100785.62;;;16.64;100.00
63970;BME280;50156;37.772;-122.432;2022-10-16T00:11:21;100783.81;;;16.67;100.00
63970;BME280;50156;37.772;-122.432;2022-10-16T00:13:52;100782.82;;;16.59;100.00
63970;BME280;50156;37.772;-122.432;2022-10-16T00:16:23;100783.79;;;16.58;100.00
63970;BME280;50156;37.772;-122.432;2022-10-16T00:18:52;100782.65;;;16.68;100.00
63970;BME280;50156;37.772;-122.432;2022-10-16T00:21:24;100787.43;;;16.69;100.00
63970;BME280;50156;37.772;-122.432;2022-10-16T00:23:53;100788.37;;;16.66;100.00
63970;BME280;50156;37.772;-122.432;2022-10-16T00:26:22;100787.44;;;16.76;100.00
63970;BME280;50156;37.772;-122.432;2022-10-16T00:28:52;100780.28;;;16.64;100.00
63970;BME280;50156;37.772;-122.432;2022-10-16T00:31:22;100781.32;;;16.60;100.00
63970;BME280;50156;37.772;-122.432;2022-10-16T00:33:52;100777.22;;;16.64;100.00
63970;BME280;50156;37.772;-122.432;2022-10-16T00:36:22;100770.42;;;16.63;100.00
63970;BME280;50156;37.772;-122.432;2022-10-16T00:38:52;100767.94;;;16.59;100.00
63970;BME280;50156;37.772;-122.432;2022-10-16T00:41:22;100768.67;;;16.64;100.00
63970;BME280;50156;37.772;-122.432;2022-10-16T00:43:52;100768.44;;;16.58;100.00
63970;BME280;50156;37.772;-122.432;2022-10-16T00:46:23;100767.44;;;16.57;100.00
63970;BME280;50156;37.772;-122.432;2022-10-16T00:48:55;100771.99;;;16.59;100.00
63970;BME280;50156;37.772;-122.432;2022-10-16T00:51:30;100769.50;;;16.63;100.00
63970;BME280;50156;37.772;-122.432;2022-10-16T00:53:59;100771.16;;;16.66;100.00
63970;BME280;50156;37.772;-122.432;2022-10-16T00:56:29;100766.02;;;16.59;100.00
63970;BME280;50156;37.772;-122.432;2022-10-16T00:59:01;100762.56;;;16.57;100.00
63970;BME280;50156;37.772;-122.432;2022-10-16T01:01:31;100770.75;;;16.64;100.00
63970;BME280;50156;37.772;-122.432;2022-10-16T01:04:00;100776.86;;;16.68;100.00
63970;BME280;50156;37.772;-122.432;2022-10-16T01:06:36;100776.49;;;16.74;100.00
63970;BME280;50156;37.772;-122.432;2022-10-16T01:09:16;100779.37;;;16.65;100.00
63970;BME280;50156;37.772;-122.432;2022-10-16T01:11:56;100779.79;;;16.62;100.00
63970;BME280;50156;37.772;-122.432;2022-10-16T01:14:34;100777.59;;;16.64;100.00
63970;BME280;50156;37.772;-122.432;2022-10-16T01:17:10;100777.30;;;16.61;100.00
63970;BME280;50156;37.772;-122.432;2022-10-16T01:19:56;100775.48;;;16.58;100.00
63970;BME280;50156;37.772;-122.432;2022-10-16T01:22:37;100779.48;;;16.53;100.00
63970;BME280;50156;37.772;-122.432;2022-10-16T01:25:11;100780.25;;;16.59;100.00
63970;BME280;50156;37.772;-122.432;2022-10-16T01:27:45;100782.50;;;16.56;100.00
63970;BME280;50156;37.772;-122.432;2022-10-16T01:30:20;100780.86;;;16.56;100.00
63970;BME280;50156;37.772;-122.432;2022-10-16T01:32:52;100785.34;;;16.63;100.00
63970;BME280;50156;37.772;-122.432;2022-10-16T01:35:27;100786.52;;;16.53;100.00
63970;BME280;50156;37.772;-122.432;2022-10-16T01:38:02;100789.28;;;16.52;100.00
63970;BME280;50156;37.772;-122.432;2022-10-16T01:40:34;100793.76;;;16.54;100.00
63970;BME280;50156;37.772;-122.432;2022-10-16T01:43:06;100796.75;;;16.51;100.00
63970;BME280;50156;37.772;-122.432;2022-10-16T01:45:37;100793.80;;;16.55;100.00
63970;BME280;50156;37.772;-122.432;2022-10-16T01:48:07;100795.11;;;16.62;100.00
63970;BME280;50156;37.772;-122.432;2022-10-16T01:50:39;100794.36;;;16.52;100.00
63970;BME280;50156;37.772;-122.432;2022-10-16T01:53:12;100791.26;;;16.54;100.00
63970;BME280;50156;37.772;-122.432;2022-10-16T01:55:44;100792.45;;;16.57;100.00
63970;BME280;50156;37.772;-122.432;2022-10-16T01:58:15;100799.57;;;16.61;100.00
63970;BME280;50156;37.772;-122.432;2022-10-16T02:00:45;100796.31;;;16.55;100.00
63970;BME280;50156;37.772;-122.432;2022-10-16T02:03:17;100794.88;;;16.59;100.00
63970;BME280;50156;37.772;-122.432;2022-10-16T02:05:49;100797.69;;;16.56;100.00
63970;BME280;50156;37.772;-122.432;2022-10-16T02:08:18;100798.27;;;16.55;100.00
63970;BME280;50156;37.772;-122.432;2022-10-16T02:10:47;100795.87;;;16.50;100.00
63970;BME280;50156;37.772;-122.432;2022-10-16T02:13:18;100795.56;;;16.58;100.00
63970;BME280;50156;37.772;-122.432;2022-10-16T02:15:50;100799.43;;;16.53;100.00
63970;BME280;50156;37.772;-122.432;2022-10-16T02:18:19;100796.20;;;16.50;100.00
63970;BME280;50156;37.772;-122.432;2022-10-16T02:20:52;100799.96;;;16.48;100.00
63970;BME280;50156;37.772;-122.432;2022-10-16T02:23:34;100801.71;;;16.55;100.00
63970;BME280;50156;37.772;-122.432;2022-10-16T02:26:07;100803.10;;;16.61;100.00
63970;BME280;50156;37.772;-122.432;2022-10-16T02:28:42;100803.89;;;16.54;100.00
63970;BME280;50156;37.772;-122.432;2022-10-16T02:31:15;100807.04;;;16.63;100.00
63970;BME280;50156;37.772;-122.432;2022-10-16T02:33:47;100813.32;;;16.67;100.00
63970;BME280;50156;37.772;-122.432;2022-10-16T02:36:15;100815.37;;;16.65;100.00
63970;BME280;50156;37.772;-122.432;2022-10-16T02:38:44;100814.48;;;16.61;100.00
63970;BME280;50156;37.772;-122.432;2022-10-16T02:41:13;100814.70;;;16.60;100.00
63970;BME280;50156;37.772;-122.432;2022-10-16T02:43:42;100815.73;;;16.64;100.00
63970;BME280;50156;37.772;-122.432;2022-10-16T02:46:11;100821.58;;;16.63;100.00
63970;BME280;50156;37.772;-122.432;2022-10-16T02:48:39;100820.09;;;16.64;100.00
63970;BME280;50156;37.772;-122.432;2022-10-16T02:51:08;100818.31;;;16.70;100.00
63970;BME280;50156;37.772;-122.432;2022-10-16T02:53:37;100814.60;;;16.55;100.00
63970;BME280;50156;37.772;-122.432;2022-10-16T02:56:06;100817.29;;;16.68;100.00
63970;BME280;50156;37.772;-122.432;2022-10-16T02:58:35;100819.20;;;16.73;100.00
63970;BME280;50156;37.772;-122.432;2022-10-16T03:01:04;100814.23;;;16.56;100.00
63970;BME280;50156;37.772;-122.432;2022-10-16T03:03:33;100814.63;;;16.60;100.00
63970;BME280;50156;37.772;-122.432;2022-10-16T03:06:01;100818.87;;;16.60;100.00
63970;BME280;50156;37.772;-122.432;2022-10-16T03:08:30;100819.50;;;16.70;100.00
63970;BME280;50156;37.772;-122.432;2022-10-16T03:10:59;100826.93;;;16.70;100.00
63970;BME280;50156;37.772;-122.432;2022-10-16T03:13:28;100824.00;;;16.62;100.00
63970;BME280;50156;37.772;-122.432;2022-10-16T03:15:57;100827.53;;;16.69;100.00
63970;BME280;50156;37.772;-122.432;2022-10-16T03:18:26;100829.10;;;16.69;100.00
63970;BME280;50156;37.772;-122.432;2022-10-16T03:20:55;100828.99;;;16.72;100.00
63970;BME280;50156;37.772;-122.432;2022-10-16T03:23:24;100829.95;;;16.75;100.00
63970;BME280;50156;37.772;-122.432;2022-10-16T03:25:52;100830.22;;;16.73;100.00
63970;BME280;50156;37.772;-122.432;2022-10-16T03:28:20;100830.18;;;16.74;100.00
63970;BME280;50156;37.772;-122.432;2022-10-16T03:30:48;100832.86;;;16.72;100.00
63970;BME280;50156;37.772;-122.432;2022-10-16T03:33:17;100837.77;;;16.73;100.00
63970;BME280;50156;37.772;-122.432;2022-10-16T03:35:52;100835.70;;;16.74;100.00
63970;BME280;50156;37.772;-122.432;2022-10-16T03:38:22;100832.61;;;16.74;100.00
63970;BME280;50156;37.772;-122.432;2022-10-16T03:40:50;100831.40;;;16.73;100.00
63970;BME280;50156;37.772;-122.432;2022-10-16T03:43:19;100827.49;;;16.71;100.00
63970;BME280;50156;37.772;-122.432;2022-10-16T03:45:49;100826.82;;;16.71;100.00
63970;BME280;50156;37.772;-122.432;2022-10-16T03:48:18;100831.16;;;16.67;100.00
63970;BME280;50156;37.772;-122.432;2022-10-16T03:50:46;100831.65;;;16.75;100.00
63970;BME280;50156;37.772;-122.432;2022-10-16T03:53:14;100836.77;;;16.82;100.00
63970;BME280;50156;37.772;-122.432;2022-10-16T03:55:44;100836.60;;;16.74;100.00
63970;BME280;50156;37.772;-122.432;2022-10-16T03:58:12;100839.18;;;16.82;100.00
63970;BME280;50156;37.772;-122.432;2022-10-16T04:00:42;100834.05;;;16.85;100.00
63970;BME280;50156;37.772;-122.432;2022-10-16T04:03:11;100837.83;;;16.91;100.00
63970;BME280;50156;37.772;-122.432;2022-10-16T04:05:40;100838.25;;;16.88;100.00
63970;BME280;50156;37.772;-122.432;2022-10-16T04:08:08;100838.69;;;16.85;100.00
63970;BME280;50156;37.772;-122.432;2022-10-16T04:10:37;100840.84;;;16.85;100.00
63970;BME280;50156;37.772;-122.432;2022-10-16T04:13:06;100843.53;;;16.87;100.00
63970;BME280;50156;37.772;-122.432;2022-10-16T04:15:35;100844.09;;;16.83;100.00
63970;BME280;50156;37.772;-122.432;2022-10-16T04:18:05;100842.05;;;16.90;100.00
63970;BME280;50156;37.772;-122.432;2022-10-16T04:20:34;100845.07;;;16.87;100.00
63970;BME280;50156;37.772;-122.432;2022-10-16T04:23:03;100848.20;;;16.84;100.00
63970;BME280;50156;37.772;-122.432;2022-10-16T04:25:32;100852.00;;;16.76;100.00
63970;BME280;50156;37.772;-122.432;2022-10-16T04:28:01;100848.77;;;16.80;100.00
63970;BME280;50156;37.772;-122.432;2022-10-16T04:30:30;100849.00;;;16.82;100.00
63970;BME280;50156;37.772;-122.432;2022-10-16T04:32:59;100849.03;;;16.88;100.00
63970;BME280;50156;37.772;-122.432;2022-10-16T04:35:28;100847.13;;;16.71;100.00
63970;BME280;50156;37.772;-122.432;2022-10-16T04:37:58;100852.75;;;16.84;100.00
63970;BME280;50156;37.772;-122.432;2022-10-16T04:40:27;100856.82;;;16.91;100.00
63970;BME280;50156;37.772;-122.432;2022-10-16T04:42:56;100865.25;;;16.72;100.00
63970;BME280;50156;37.772;-122.432;2022-10-16T04:45:24;100864.25;;;16.70;100.00
63970;BME280;50156;37.772;-122.432;2022-10-16T04:47:52;100870.01;;;16.75;100.00
63970;BME280;50156;37.772;-122.432;2022-10-16T04:50:21;100868.42;;;16.72;100.00
63970;BME280;50156;37.772;-122.432;2022-10-16T04:52:50;100871.65;;;16.76;100.00
63970;BME280;50156;37.772;-122.432;2022-10-16T04:55:18;100869.46;;;16.70;100.00
63970;BME280;50156;37.772;-122.432;2022-10-16T04:57:46;100865.51;;;16.72;100.00
63970;BME280;50156;37.772;-122.432;2022-10-16T05:00:15;100869.20;;;16.72;100.00
63970;BME280;50156;37.772;-122.432;2022-10-16T05:02:43;100876.73;;;16.82;100.00
63970;BME280;50156;37.772;-122.432;2022-10-16T05:05:12;100877.88;;;16.80;100.00
63970;BME280;50156;37.772;-122.432;2022-10-16T05:07:40;100878.36;;;16.82;100.00
63970;BME280;50156;37.772;-122.432;2022-10-16T05:10:09;100880.20;;;16.80;100.00
63970;BME280;50156;37.772;-122.432;2022-10-16T05:12:37;100882.60;;;16.83;100.00
63970;BME280;50156;37.772;-122.432;2022-10-16T05:15:07;100883.81;;;16.80;100.00
63970;BME280;50156;37.772;-122.432;2022-10-16T05:17:36;100888.37;;;16.86;100.00
63970;BME280;50156;37.772;-122.432;2022-10-16T05:20:06;100893.76;;;16.95;100.00
63970;BME280;50156;37.772;-122.432;2022-10-16T05:22:35;100898.15;;;16.88;100.00
63970;BME280;50156;37.772;-122.432;2022-10-16T05:25:05;100898.37;;;16.83;100.00
63970;BME280;50156;37.772;-122.432;2022-10-16T05:27:34;100896.70;;;16.81;100.00
63970;BME280;50156;37.772;-122.432;2022-10-16T05:30:03;100897.91;;;16.84;100.00
63970;BME280;50156;37.772;-122.432;2022-10-16T05:32:33;100900.03;;;16.91;100.00
63970;BME280;50156;37.772;-122.432;2022-10-16T05:35:02;100901.22;;;16.95;100.00
63970;BME280;50156;37.772;-122.432;2022-10-16T05:37:30;100898.28;;;16.98;100.00
63970;BME280;50156;37.772;-122.432;2022-10-16T05:39:58;100901.06;;;17.01;100.00
63970;BME280;50156;37.772;-122.432;2022-10-16T05:42:28;100899.05;;;17.06;100.00
63970;BME280;50156;37.772;-122.432;2022-10-16T05:44:57;100899.32;;;16.93;100.00
63970;BME280;50156;37.772;-122.432;2022-10-16T05:47:26;100894.02;;;16.97;100.00
63970;BME280;50156;37.772;-122.432;2022-10-16T05:49:54;100891.74;;;16.95;100.00
63970;BME280;50156;37.772;-122.432;2022-10-16T05:52:23;100888.26;;;16.99;100.00
63970;BME280;50156;37.772;-122.432;2022-10-16T05:54:51;100885.15;;;17.00;100.00
63970;BME280;50156;37.772;-122.432;2022-10-16T05:57:19;100889.64;;;16.98;100.00
63970;BME280;50156;37.772;-122.432;2022-10-16T05:59:48;100890.22;;;17.04;100.00
63970;BME280;50156;37.772;-122.432;2022-10-16T06:02:17;100892.72;;;17.04;100.00
63970;BME280;50156;37.772;-122.432;2022-10-16T06:04:45;100893.10;;;16.97;100.00
63970;BME280;50156;37.772;-122.432;2022-10-16T06:07:14;100895.24;;;17.05;100.00
63970;BME280;50156;37.772;-122.432;2022-10-16T06:09:42;100896.67;;;17.11;100.00
63970;BME280;50156;37.772;-122.432;2022-10-16T06:12:11;100899.22;;;17.10;100.00
63970;BME280;50156;37.772;-122.432;2022-10-16T06:14:39;100900.75;;;17.16;100.00
63970;BME280;50156;37.772;-122.432;2022-10-16T06:17:08;100902.94;;;17.19;100.00
63970;BME280;50156;37.772;-122.432;2022-10-16T06:19:37;100908.72;;;17.14;100.00
63970;BME280;50156;37.772;-122.432;2022-10-16T06:22:06;100910.34;;;17.15;100.00
63970;BME280;50156;37.772;-122.432;2022-10-16T06:24:35;100910.08;;;17.15;100.00
63970;BME280;50156;37.772;-122.432;2022-10-16T06:27:04;100910.63;;;17.12;100.00
63970;BME280;50156;37.772;-122.432;2022-10-16T06:29:33;100908.97;;;17.13;100.00
63970;BME280;50156;37.772;-122.432;2022-10-16T06:32:02;100908.76;;;17.15;100.00
63970;BME280;50156;37.772;-122.432;2022-10-16T06:34:31;100907.38;;;17.20;100.00
63970;BME280;50156;37.772;-122.432;2022-10-16T06:36:59;100912.16;;;17.16;100.00
63970;BME280;50156;37.772;-122.432;2022-10-16T06:39:29;100910.57;;;17.18;100.00
63970;BME280;50156;37.772;-122.432;2022-10-16T06:41:57;100911.85;;;17.10;100.00
63970;BME280;50156;37.772;-122.432;2022-10-16T06:44:25;100910.69;;;17.12;100.00
63970;BME280;50156;37.772;-122.432;2022-10-16T06:46:54;100908.22;;;17.07;100.00
63970;BME280;50156;37.772;-122.432;2022-10-16T06:49:22;100909.37;;;17.01;100.00
63970;BME280;50156;37.772;-122.432;2022-10-16T06:51:50;100907.13;;;16.98;100.00
63970;BME280;50156;37.772;-122.432;2022-10-16T06:54:19;100907.38;;;16.95;100.00
63970;BME280;50156;37.772;-122.432;2022-10-16T06:56:47;100903.97;;;16.93;100.00
63970;BME280;50156;37.772;-122.432;2022-10-16T06:59:16;100898.57;;;16.92;100.00
63970;BME280;50156;37.772;-122.432;2022-10-16T07:01:45;100893.87;;;16.99;100.00
63970;BME280;50156;37.772;-122.432;2022-10-16T07:04:14;100893.42;;;16.93;100.00
63970;BME280;50156;37.772;-122.432;2022-10-16T07:06:43;100894.15;;;16.87;100.00
63970;BME280;50156;37.772;-122.432;2022-10-16T07:09:12;100893.21;;;16.99;100.00
63970;BME280;50156;37.772;-122.432;2022-10-16T07:11:41;100896.63;;;16.91;100.00
63970;BME280;50156;37.772;-122.432;2022-10-16T07:14:16;100901.74;;;16.87;100.00
63970;BME280;50156;37.772;-122.432;2022-10-16T07:16:45;100903.14;;;16.93;100.00
63970;BME280;50156;37.772;-122.432;2022-10-16T07:19:15;100903.09;;;17.00;100.00
63970;BME280;50156;37.772;-122.432;2022-10-16T07:21:43;100906.30;;;16.94;100.00
63970;BME280;50156;37.772;-122.432;2022-10-16T07:24:14;100905.95;;;16.95;100.00
63970;BME280;50156;37.772;-122.432;2022-10-16T07:26:44;100907.70;;;16.86;100.00
63970;BME280;50156;37.772;-122.432;2022-10-16T07:29:14;100911.88;;;16.91;100.00
63970;BME280;50156;37.772;-122.432;2022-10-16T07:31:44;100910.77;;;16.84;100.00
63970;BME280;50156;37.772;-122.432;2022-10-16T07:34:15;100913.14;;;16.96;100.00
63970;BME280;50156;37.772;-122.432;2022-10-16T07:36:44;100919.42;;;16.89;100.00
63970;BME280;50156;37.772;-122.432;2022-10-16T07:39:13;100919.49;;;16.97;100.00
63970;BME280;50156;37.772;-122.432;2022-10-16T07:41:41;100925.78;;;16.92;100.00
63970;BME280;50156;37.772;-122.432;2022-10-16T07:44:09;100926.31;;;16.86;100.00
63970;BME280;50156;37.772;-122.432;2022-10-16T07:46:38;100923.76;;;16.94;100.00
63970;BME280;50156;37.772;-122.432;2022-10-16T07:49:06;100925.57;;;16.81;100.00
63970;BME280;50156;37.772;-122.432;2022-10-16T07:51:35;100922.76;;;16.90;100.00
63970;BME280;50156;37.772;-122.432;2022-10-16T07:54:04;100921.32;;;16.90;100.00
63970;BME280;50156;37.772;-122.432;2022-10-16T07:56:33;100924.79;;;16.92;100.00
63970;BME280;50156;37.772;-122.432;2022-10-16T07:59:01;100925.04;;;16.88;100.00
63970;BME280;50156;37.772;-122.432;2022-10-16T08:01:30;100921.04;;;16.94;100.00
63970;BME280;50156;37.772;-122.432;2022-10-16T08:03:58;100923.80;;;16.91;100.00
63970;BME280;50156;37.772;-122.432;2022-10-16T08:06:27;100918.60;;;16.84;100.00
63970;BME280;50156;37.772;-122.432;2022-10-16T08:08:57;100919.72;;;16.83;100.00
63970;BME280;50156;37.772;-122.432;2022-10-16T08:11:25;100919.90;;;16.83;100.00
63970;BME280;50156;37.772;-122.432;2022-10-16T08:13:54;100923.25;;;16.85;100.00
63970;BME280;50156;37.772;-122.432;2022-10-16T08:16:23;100926.86;;;16.91;100.00
63970;BME280;50156;37.772;-122.432;2022-10-16T08:18:51;100926.20;;;16.79;100.00
63970;BME280;50156;37.772;-122.432;2022-10-16T08:21:21;100930.32;;;16.76;100.00
63970;BME280;50156;37.772;-122.432;2022-10-16T08:23:50;100933.31;;;16.70;100.00
63970;BME280;50156;37.772;-122.432;2022-10-16T08:26:19;100933.26;;;16.74;100.00
63970;BME280;50156;37.772;-122.432;2022-10-16T08:28:50;100935.40;;;16.76;100.00
63970;BME280;50156;37.772;-122.432;2022-10-16T08:31:19;100934.22;;;16.76;100.00
63970;BME280;50156;37.772;-122.432;2022-10-16T08:33:48;100934.83;;;16.72;100.00
63970;BME280;50156;37.772;-122.432;2022-10-16T08:36:17;100933.29;;;16.70;100.00
63970;BME280;50156;37.772;-122.432;2022-10-16T08:38:49;100933.19;;;16.79;100.00
63970;BME280;50156;37.772;-122.432;2022-10-16T08:41:29;100934.70;;;16.74;100.00
63970;BME280;50156;37.772;-122.432;2022-10-16T08:44:21;100932.91;;;16.78;100.00
63970;BME280;50156;37.772;-122.432;2022-10-16T08:47:02;100935.92;;;16.82;100.00
63970;BME280;50156;37.772;-122.432;2022-10-16T08:49:35;100938.03;;;16.77;100.00
63970;BME280;50156;37.772;-122.432;2022-10-16T08:52:03;100944.66;;;16.74;100.00
63970;BME280;50156;37.772;-122.432;2022-10-16T08:54:37;100946.42;;;16.73;100.00
63970;BME280;50156;37.772;-122.432;2022-10-16T08:57:13;100949.71;;;16.72;100.00
63970;BME280;50156;37.772;-122.432;2022-10-16T08:59:42;100952.55;;;16.73;100.00
63970;BME280;50156;37.772;-122.432;2022-10-16T09:02:24;100951.64;;;16.66;100.00
63970;BME280;50156;37.772;-122.432;2022-10-16T09:05:01;100951.61;;;16.63;100.00
63970;BME280;50156;37.772;-122.432;2022-10-16T09:07:35;100954.16;;;16.65;100.00
63970;BME280;50156;37.772;-122.432;2022-10-16T09:10:15;100956.69;;;16.72;100.00
63970;BME280;50156;37.772;-122.432;2022-10-16T09:12:54;100959.20;;;16.72;100.00
63970;BME280;50156;37.772;-122.432;2022-10-16T09:15:32;100963.23;;;16.79;100.00
63970;BME280;50156;37.772;-122.432;2022-10-16T09:18:09;100969.80;;;16.85;100.00
63970;BME280;50156;37.772;-122.432;2022-10-16T09:20:49;100970.51;;;16.76;100.00
63970;BME280;50156;37.772;-122.432;2022-10-16T09:23:22;100973.31;;;16.82;100.00
63970;BME280;50156;37.772;-122.432;2022-10-16T09:25:54;100969.25;;;16.85;100.00
63970;BME280;50156;37.772;-122.432;2022-10-16T09:28:24;100965.63;;;16.81;100.00
63970;BME280;50156;37.772;-122.432;2022-10-16T09:30:52;100969.07;;;16.77;100.00
63970;BME280;50156;37.772;-122.432;2022-10-16T09:33:24;100971.91;;;16.83;100.00
63970;BME280;50156;37.772;-122.432;2022-10-16T09:35:54;100968.89;;;16.74;100.00
63970;BME280;50156;37.772;-122.432;2022-10-16T09:38:27;100965.62;;;16.81;100.00
63970;BME280;50156;37.772;-122.432;2022-10-16T09:40:58;100959.55;;;16.77;100.00
63970;BME280;50156;37.772;-122.432;2022-10-16T09:43:28;100958.41;;;16.68;100.00
63970;BME280;50156;37.772;-122.432;2022-10-16T09:46:00;100964.23;;;16.73;100.00
63970;BME280;50156;37.772;-122.432;2022-10-16T09:48:36;100966.60;;;16.71;100.00
63970;BME280;50156;37.772;-122.432;2022-10-16T09:51:14;100969.23;;;16.70;100.00
63970;BME280;50156;37.772;-122.432;2022-10-16T09:53:46;100974.18;;;16.74;100.00
63970;BME280;50156;37.772;-122.432;2022-10-16T09:56:24;100974.89;;;16.71;100.00
63970;BME280;50156;37.772;-122.432;2022-10-16T09:58:54;100975.43;;;16.68;100.00
63970;BME280;50156;37.772;-122.432;2022-10-16T10:01:26;100978.36;;;16.68;100.00
63970;BME280;50156;37.772;-122.432;2022-10-16T10:03:58;100979.33;;;16.69;100.00
63970;BME280;50156;37.772;-122.432;2022-10-16T10:06:31;100980.43;;;16.71;100.00
63970;BME280;50156;37.772;-122.432;2022-10-16T10:09:05;100981.10;;;16.75;100.00
63970;BME280;50156;37.772;-122.432;2022-10-16T10:11:46;100983.59;;;16.77;100.00
63970;BME280;50156;37.772;-122.432;2022-10-16T10:14:20;100985.30;;;16.71;100.00
63970;BME280;50156;37.772;-122.432;2022-10-16T10:16:51;100984.85;;;16.72;100.00
63970;BME280;50156;37.772;-122.432;2022-10-16T10:19:21;100987.35;;;16.83;100.00
63970;BME280;50156;37.772;-122.432;2022-10-16T10:21:51;100992.10;;;16.86;100.00
63970;BME280;50156;37.772;-122.432;2022-10-16T10:24:20;100989.36;;;16.88;100.00
63970;BME280;50156;37.772;-122.432;2022-10-16T10:26:56;100990.17;;;16.84;100.00
63970;BME280;50156;37.772;-122.432;2022-10-16T10:29:38;100989.57;;;16.92;100.00
63970;BME280;50156;37.772;-122.432;2022-10-16T10:32:18;100994.36;;;16.90;100.00
63970;BME280;50156;37.772;-122.432;2022-10-16T10:35:00;100996.34;;;16.84;100.00
63970;BME280;50156;37.772;-122.432;2022-10-16T10:37:45;100998.07;;;16.88;100.00
63970;BME280;50156;37.772;-122.432;2022-10-16T10:40:39;100998.83;;;16.97;100.00
63970;BME280;50156;37.772;-122.432;2022-10-16T10:43:21;101001.60;;;16.99;100.00
63970;BME280;50156;37.772;-122.432;2022-10-16T10:46:00;101003.43;;;16.99;100.00
63970;BME280;50156;37.772;-122.432;2022-10-16T10:48:57;101002.06;;;16.94;100.00
63970;BME280;50156;37.772;-122.432;2022-10-16T10:51:35;101000.51;;;16.99;100.00
63970;BME280;50156;37.772;-122.432;2022-10-16T10:54:16;100998.27;;;17.05;100.00
63970;BME280;50156;37.772;-122.432;2022-10-16T10:56:55;101000.52;;;17.03;100.00
63970;BME280;50156;37.772;-122.432;2022-10-16T10:59:38;101006.34;;;16.93;100.00
63970;BME280;50156;37.772;-122.432;2022-10-16T11:02:17;101004.90;;;16.92;100.00
63970;BME280;50156;37.772;-122.432;2022-10-16T11:04:59;101002.78;;;16.96;100.00
63970;BME280;50156;37.772;-122.432;2022-10-16T11:07:36;101002.71;;;16.92;100.00
63970;BME280;50156;37.772;-122.432;2022-10-16T11:10:12;101003.07;;;16.95;100.00
63970;BME280;50156;37.772;-122.432;2022-10-16T11:12:44;101005.76;;;16.94;100.00
63970;BME280;50156;37.772;-122.432;2022-10-16T11:15:17;101014.52;;;16.93;100.00
63970;BME280;50156;37.772;-122.432;2022-10-16T11:17:52;101015.55;;;16.88;100.00
63970;BME280;50156;37.772;-122.432;2022-10-16T11:20:24;101021.17;;;16.81;100.00
63970;BME280;50156;37.772;-122.432;2022-10-16T11:22:58;101023.01;;;16.84;100.00
63970;BME280;50156;37.772;-122.432;2022-10-16T11:25:32;101025.92;;;16.72;100.00
63970;BME280;50156;37.772;-122.432;2022-10-16T11:28:07;101026.93;;;16.80;100.00
63970;BME280;50156;37.772;-122.432;2022-10-16T11:30:44;101027.39;;;16.85;100.00
63970;BME280;50156;37.772;-122.432;2022-10-16T11:33:28;101024.90;;;16.83;100.00
63970;BME280;50156;37.772;-122.432;2022-10-16T11:36:03;101022.55;;;16.74;100.00
63970;BME280;50156;37.772;-122.432;2022-10-16T11:38:41;101022.87;;;16.72;100.00
63970;BME280;50156;37.772;-122.432;2022-10-16T11:41:20;101024.40;;;16.75;100.00
63970;BME280;50156;37.772;-122.432;2022-10-16T11:43:56;101026.19;;;16.77;100.00
63970;BME280;50156;37.772;-122.432;2022-10-16T11:46:31;101026.32;;;16.77;100.00
63970;BME280;50156;37.772;-122.432;2022-10-16T11:49:07;101032.17;;;16.70;100.00
63970;BME280;50156;37.772;-122.432;2022-10-16T11:51:42;101038.16;;;16.72;100.00
63970;BME280;50156;37.772;-122.432;2022-10-16T11:54:20;101041.77;;;16.68;100.00
63970;BME280;50156;37.772;-122.432;2022-10-16T11:56:52;101044.38;;;16.70;100.00
63970;BME280;50156;37.772;-122.432;2022-10-16T11:59:27;101042.14;;;16.76;100.00
63970;BME280;50156;37.772;-122.432;2022-10-16T12:02:11;101046.13;;;16.68;100.00
63970;BME280;50156;37.772;-122.432;2022-10-16T12:04:49;101043.09;;;16.76;100.00
63970;BME280;50156;37.772;-122.432;2022-10-16T12:07:21;101041.45;;;16.72;100.00
63970;BME280;50156;37.772;-122.432;2022-10-16T12:09:53;101041.46;;;16.61;100.00
63970;BME280;50156;37.772;-122.432;2022-10-16T12:12:26;101045.98;;;16.67;100.00
63970;BME280;50156;37.772;-122.432;2022-10-16T12:15:20;101050.27;;;16.63;100.00
63970;BME280;50156;37.772;-122.432;2022-10-16T12:17:50;101056.34;;;16.63;100.00
63970;BME280;50156;37.772;-122.432;2022-10-16T12:20:24;101057.06;;;16.62;100.00
63970;BME280;50156;37.772;-122.432;2022-10-16T12:22:55;101056.61;;;16.66;100.00
63970;BME280;50156;37.772;-122.432;2022-10-16T12:25:29;101055.39;;;16.67;100.00
63970;BME280;50156;37.772;-122.432;2022-10-16T12:28:00;101058.12;;;16.74;100.00
63970;BME280;50156;37.772;-122.432;2022-10-16T12:30:34;101056.32;;;16.76;100.00
63970;BME280;50156;37.772;-122.432;2022-10-16T12:33:05;101058.11;;;16.73;100.00